Garden State — KGSG — position and weather

sailwx.info

Track history (hours):
 
Tides and Currents Weather Stations Pressure Air Temp Water Temp Dewpoint Dewpoint Depression Visibility Wind Speed Wind Dir Waves Ship Positions

Garden State

Owner: Crowley Petroleum Services, Inc., Jacksonville, FL. More information available from US FCC via Universal Licensing System and Coast Guard Vessel Documentation Center.

Last reported at 2017-Nov-16 15:12 UTC. Time now 2017-Nov-17 17:47 UTC.
Position N 27°38' W 082°38'.

Length 186 m; draft 8 m.

Type: Tanker. MMSI: 367102000.

Date/timePositionNaut miles runAvg speedWind from/ knotsBaromVisibWave heightAir tempDewpointWater temp
2017-Nov-16 15:12N 27°38' W 082°38'412.4
2017-Nov-16 14:54N 27°40' W 082°36'512.2
2017-Nov-16 14:30N 27°44' W 082°32'4 8.7
2017-Nov-16 14:01N 27°48' W 082°34'4 8.3
2017-Nov-16 13:30N 27°52' W 082°33'0 0.5
2017-Nov-16 13:00N 27°52' W 082°33'0 0.0
2017-Nov-16 12:29N 27°52' W 082°33'0 0.0
2017-Nov-16 11:56N 27°52' W 082°33'0 0.0
2017-Nov-16 11:26N 27°52' W 082°33'0 0.0
2017-Nov-16 10:59N 27°52' W 082°33'0 0.0
2017-Nov-16 10:29N 27°52' W 082°33'0 0.0
2017-Nov-16 09:53N 27°52' W 082°33'0 0.0
2017-Nov-16 09:23N 27°52' W 082°33'0 0.0
2017-Nov-16 08:53N 27°52' W 082°33'0 0.0
2017-Nov-16 08:29N 27°52' W 082°33'0 0.0
2017-Nov-16 07:59N 27°52' W 082°33'0 0.0
2017-Nov-16 07:29N 27°52' W 082°33'0 0.0
2017-Nov-16 06:53N 27°52' W 082°33'0 0.0
2017-Nov-16 06:20N 27°52' W 082°33'0 0.0
2017-Nov-16 05:53N 27°52' W 082°33'0 0.0
2017-Nov-16 05:29N 27°52' W 082°33'0 0.0
2017-Nov-16 04:29N 27°52' W 082°33'0 0.0
2017-Nov-15 22:47N 27°52' W 082°33'0 0.0
2017-Nov-15 22:26N 27°52' W 082°33'0 0.0
2017-Nov-15 21:59N 27°52' W 082°33'0 0.0
2017-Nov-15 21:26N 27°52' W 082°33'0 0.0
2017-Nov-15 20:59N 27°52' W 082°33'0 0.0
2017-Nov-15 20:26N 27°52' W 082°33'0 0.0
2017-Nov-15 19:47N 27°52' W 082°33'0 0.0
2017-Nov-15 19:29N 27°52' W 082°33'0 0.0
2017-Nov-15 18:59N 27°52' W 082°33'0 0.0
2017-Nov-15 18:29N 27°52' W 082°33'0 0.0
2017-Nov-15 17:59N 27°52' W 082°33'0 0.0
2017-Nov-15 17:29N 27°52' W 082°33'0 0.0
2017-Nov-15 16:59N 27°52' W 082°33'0 0.0
2017-Nov-15 16:20N 27°52' W 082°33'0 0.0
2017-Nov-15 15:53N 27°52' W 082°33'0 0.0
2017-Nov-15 14:54N 27°52' W 082°33'0 0.0
2017-Nov-15 13:07N 27°52' W 082°33'0 0.3
2017-Nov-15 13:00N 27°52' W 082°33'1 1.9
2017-Nov-15 12:30N 27°51' W 082°34'3 6.9
2017-Nov-15 12:00N 27°47' W 082°34'5 9.7
2017-Nov-15 11:30N 27°48' W 082°29'510.5
2017-Nov-15 11:00N 27°53' W 082°26'2 4.7
2017-Nov-15 10:30N 27°55' W 082°27'0 0.0
2017-Nov-15 10:00N 27°55' W 082°27'0 0.0
2017-Nov-15 09:30N 27°55' W 082°27'0 0.0
2017-Nov-15 09:00N 27°55' W 082°27'0 0.0
2017-Nov-15 08:30N 27°55' W 082°27'0 0.0
2017-Nov-15 08:00N 27°55' W 082°27'0 0.0
2017-Nov-15 07:30N 27°55' W 082°27'0 0.0
2017-Nov-15 07:00N 27°55' W 082°27'0 0.0
2017-Nov-15 06:30N 27°55' W 082°27'0 0.0
2017-Nov-15 06:00N 27°55' W 082°27'0 0.0
2017-Nov-15 05:30N 27°55' W 082°27'0 0.0
2017-Nov-15 05:00N 27°55' W 082°27'0 0.0
2017-Nov-15 04:30N 27°55' W 082°27'0 0.0
2017-Nov-15 04:00N 27°55' W 082°27'0 0.0
2017-Nov-15 03:27N 27°55' W 082°27'0 0.0
2017-Nov-15 03:00N 27°55' W 082°27'0 0.0
2017-Nov-15 02:30N 27°55' W 082°27'0 0.0
2017-Nov-15 02:00N 27°55' W 082°27'0 0.0
2017-Nov-15 01:30N 27°55' W 082°27'0 0.0
2017-Nov-15 00:57N 27°55' W 082°27'0 0.0
2017-Nov-15 00:27N 27°55' W 082°27'0 0.0
2017-Nov-15 00:00N 27°55' W 082°27'0 0.0
2017-Nov-14 23:30N 27°55' W 082°27'0 0.0
2017-Nov-14 23:00N 27°55' W 082°27'0 0.0
2017-Nov-14 22:30N 27°55' W 082°27'0 0.0
2017-Nov-14 22:00N 27°55' W 082°27'0 0.0
2017-Nov-14 21:30N 27°55' W 082°27'0 0.0
2017-Nov-14 21:00N 27°55' W 082°27'0 0.0
2017-Nov-14 20:30N 27°55' W 082°27'0 0.0
2017-Nov-14 20:00N 27°55' W 082°27'0 0.0
2017-Nov-14 19:30N 27°55' W 082°27'0 0.0
2017-Nov-14 19:00N 27°55' W 082°27'0 0.0
2017-Nov-14 18:30N 27°55' W 082°27'0 0.0
2017-Nov-14 18:00N 27°55' W 082°27'0 0.0
2017-Nov-14 17:30N 27°55' W 082°27'0 0.0
2017-Nov-14 17:00N 27°55' W 082°27'0 0.0
2017-Nov-14 16:30N 27°55' W 082°27'0 0.0
2017-Nov-14 16:00N 27°55' W 082°27'0 0.0
2017-Nov-14 15:30N 27°55' W 082°27'0 0.0
2017-Nov-14 15:00N 27°55' W 082°27'0 0.0
2017-Nov-14 14:30N 27°55' W 082°27'0 0.0
2017-Nov-14 14:00N 27°55' W 082°27'0 0.0
2017-Nov-14 13:30N 27°55' W 082°27'0 0.0
2017-Nov-14 13:00N 27°55' W 082°27'0 0.0
2017-Nov-14 12:30N 27°55' W 082°27'0 0.0
2017-Nov-14 12:00N 27°55' W 082°27'0 0.0
2017-Nov-14 11:29N 27°55' W 082°27'0 0.0
2017-Nov-14 11:00N 27°55' W 082°27'0 0.0
2017-Nov-14 10:31N 27°55' W 082°27'0 0.0
2017-Nov-14 10:01N 27°55' W 082°27'0 0.1
2017-Nov-14 09:31N 27°55' W 082°27'1 1.7
2017-Nov-14 09:00N 27°54' W 082°26'4 8.2
2017-Nov-14 08:31N 27°50' W 082°27'510.5
2017-Nov-14 08:01N 27°47' W 082°31'510.6
2017-Nov-14 07:31N 27°42' W 082°33'5 9.3
2017-Nov-14 06:59N 27°38' W 082°37'  
2017-Nov-11 04:59N 29°56' W 090°22'  
Track history (hours):
 
Tides and Currents Weather Stations Pressure Air Temp Water Temp Dewpoint Dewpoint Depression Visibility Wind Speed Wind Dir Waves Ship Positions

Garden State

Owner: Crowley Petroleum Services, Inc., Jacksonville, FL. More information available from US FCC via Universal Licensing System and Coast Guard Vessel Documentation Center.

Last reported at 2017-Nov-16 15:12 UTC. Time now 2017-Nov-17 17:47 UTC.
Position N 27°38' W 082°38'.

Length 186 m; draft 8 m.

Type: Tanker. MMSI: 367102000.

Date/timePositionNaut miles runAvg speedWind from/ knotsBaromVisibWave heightAir tempDewpointWater temp
2017-Nov-16 15:12N 27°38' W 082°38'412.4
2017-Nov-16 14:54N 27°40' W 082°36'512.2
2017-Nov-16 14:30N 27°44' W 082°32'4 8.7
2017-Nov-16 14:01N 27°48' W 082°34'4 8.3
2017-Nov-16 13:30N 27°52' W 082°33'0 0.5
2017-Nov-16 13:00N 27°52' W 082°33'0 0.0
2017-Nov-16 12:29N 27°52' W 082°33'0 0.0
2017-Nov-16 11:56N 27°52' W 082°33'0 0.0
2017-Nov-16 11:26N 27°52' W 082°33'0 0.0
2017-Nov-16 10:59N 27°52' W 082°33'0 0.0
2017-Nov-16 10:29N 27°52' W 082°33'0 0.0
2017-Nov-16 09:53N 27°52' W 082°33'0 0.0
2017-Nov-16 09:23N 27°52' W 082°33'0 0.0
2017-Nov-16 08:53N 27°52' W 082°33'0 0.0
2017-Nov-16 08:29N 27°52' W 082°33'0 0.0
2017-Nov-16 07:59N 27°52' W 082°33'0 0.0
2017-Nov-16 07:29N 27°52' W 082°33'0 0.0
2017-Nov-16 06:53N 27°52' W 082°33'0 0.0
2017-Nov-16 06:20N 27°52' W 082°33'0 0.0
2017-Nov-16 05:53N 27°52' W 082°33'0 0.0
2017-Nov-16 05:29N 27°52' W 082°33'0 0.0
2017-Nov-16 04:29N 27°52' W 082°33'0 0.0
2017-Nov-15 22:47N 27°52' W 082°33'0 0.0
2017-Nov-15 22:26N 27°52' W 082°33'0 0.0
2017-Nov-15 21:59N 27°52' W 082°33'0 0.0
2017-Nov-15 21:26N 27°52' W 082°33'0 0.0
2017-Nov-15 20:59N 27°52' W 082°33'0 0.0
2017-Nov-15 20:26N 27°52' W 082°33'0 0.0
2017-Nov-15 19:47N 27°52' W 082°33'0 0.0
2017-Nov-15 19:29N 27°52' W 082°33'0 0.0
2017-Nov-15 18:59N 27°52' W 082°33'0 0.0
2017-Nov-15 18:29N 27°52' W 082°33'0 0.0
2017-Nov-15 17:59N 27°52' W 082°33'0 0.0
2017-Nov-15 17:29N 27°52' W 082°33'0 0.0
2017-Nov-15 16:59N 27°52' W 082°33'0 0.0
2017-Nov-15 16:20N 27°52' W 082°33'0 0.0
2017-Nov-15 15:53N 27°52' W 082°33'0 0.0
2017-Nov-15 14:54N 27°52' W 082°33'0 0.0
2017-Nov-15 13:07N 27°52' W 082°33'0 0.3
2017-Nov-15 13:00N 27°52' W 082°33'1 1.9
2017-Nov-15 12:30N 27°51' W 082°34'3 6.9
2017-Nov-15 12:00N 27°47' W 082°34'5 9.7
2017-Nov-15 11:30N 27°48' W 082°29'510.5
2017-Nov-15 11:00N 27°53' W 082°26'2 4.7
2017-Nov-15 10:30N 27°55' W 082°27'0 0.0
2017-Nov-15 10:00N 27°55' W 082°27'0 0.0
2017-Nov-15 09:30N 27°55' W 082°27'0 0.0
2017-Nov-15 09:00N 27°55' W 082°27'0 0.0
2017-Nov-15 08:30N 27°55' W 082°27'0 0.0
2017-Nov-15 08:00N 27°55' W 082°27'0 0.0
2017-Nov-15 07:30N 27°55' W 082°27'0 0.0
2017-Nov-15 07:00N 27°55' W 082°27'0 0.0
2017-Nov-15 06:30N 27°55' W 082°27'0 0.0
2017-Nov-15 06:00N 27°55' W 082°27'0 0.0
2017-Nov-15 05:30N 27°55' W 082°27'0 0.0
2017-Nov-15 05:00N 27°55' W 082°27'0 0.0
2017-Nov-15 04:30N 27°55' W 082°27'0 0.0
2017-Nov-15 04:00N 27°55' W 082°27'0 0.0
2017-Nov-15 03:27N 27°55' W 082°27'0 0.0
2017-Nov-15 03:00N 27°55' W 082°27'0 0.0
2017-Nov-15 02:30N 27°55' W 082°27'0 0.0
2017-Nov-15 02:00N 27°55' W 082°27'0 0.0
2017-Nov-15 01:30N 27°55' W 082°27'0 0.0
2017-Nov-15 00:57N 27°55' W 082°27'0 0.0
2017-Nov-15 00:27N 27°55' W 082°27'0 0.0
2017-Nov-15 00:00N 27°55' W 082°27'0 0.0
2017-Nov-14 23:30N 27°55' W 082°27'0 0.0
2017-Nov-14 23:00N 27°55' W 082°27'0 0.0
2017-Nov-14 22:30N 27°55' W 082°27'0 0.0
2017-Nov-14 22:00N 27°55' W 082°27'0 0.0
2017-Nov-14 21:30N 27°55' W 082°27'0 0.0
2017-Nov-14 21:00N 27°55' W 082°27'0 0.0
2017-Nov-14 20:30N 27°55' W 082°27'0 0.0
2017-Nov-14 20:00N 27°55' W 082°27'0 0.0
2017-Nov-14 19:30N 27°55' W 082°27'0 0.0
2017-Nov-14 19:00N 27°55' W 082°27'0 0.0
2017-Nov-14 18:30N 27°55' W 082°27'0 0.0
2017-Nov-14 18:00N 27°55' W 082°27'0 0.0
2017-Nov-14 17:30N 27°55' W 082°27'0 0.0
2017-Nov-14 17:00N 27°55' W 082°27'0 0.0
2017-Nov-14 16:30N 27°55' W 082°27'0 0.0
2017-Nov-14 16:00N 27°55' W 082°27'0 0.0
2017-Nov-14 15:30N 27°55' W 082°27'0 0.0
2017-Nov-14 15:00N 27°55' W 082°27'0 0.0
2017-Nov-14 14:30N 27°55' W 082°27'0 0.0
2017-Nov-14 14:00N 27°55' W 082°27'0 0.0
2017-Nov-14 13:30N 27°55' W 082°27'0 0.0
2017-Nov-14 13:00N 27°55' W 082°27'0 0.0
2017-Nov-14 12:30N 27°55' W 082°27'0 0.0
2017-Nov-14 12:00N 27°55' W 082°27'0 0.0
2017-Nov-14 11:29N 27°55' W 082°27'0 0.0
2017-Nov-14 11:00N 27°55' W 082°27'0 0.0
2017-Nov-14 10:31N 27°55' W 082°27'0 0.0
2017-Nov-14 10:01N 27°55' W 082°27'0 0.1
2017-Nov-14 09:31N 27°55' W 082°27'1 1.7
2017-Nov-14 09:00N 27°54' W 082°26'4 8.2
2017-Nov-14 08:31N 27°50' W 082°27'510.5
2017-Nov-14 08:01N 27°47' W 082°31'510.6
2017-Nov-14 07:31N 27°42' W 082°33'5 9.3
2017-Nov-14 06:59N 27°38' W 082°37'  
2017-Nov-11 04:59N 29°56' W 090°22'  

Dump ship's entire track history